createdAt,value
2016-09-22T00:00:15.378Z,51.21
2016-09-22T00:00:56.123Z,51.4
2016-09-22T00:01:36.851Z,51.11
2016-09-22T00:02:17.581Z,51.31
2016-09-22T00:02:58.291Z,51.21
2016-09-22T00:03:39.009Z,51.5
2016-09-22T00:04:19.770Z,51.31
2016-09-22T00:05:00.572Z,51.21
2016-09-22T00:05:41.352Z,51.31
2016-09-22T00:06:22.062Z,51.21
2016-09-22T00:07:02.800Z,51.31
2016-09-22T00:07:43.561Z,51.31
2016-09-22T00:08:25.255Z,51.4
2016-09-22T00:09:06.011Z,51.4
2016-09-22T00:09:46.742Z,51.31
2016-09-22T00:10:27.504Z,51.31
2016-09-22T00:11:08.218Z,51.4
2016-09-22T00:11:49.013Z,51.59
2016-09-22T00:12:29.710Z,51.31
2016-09-22T00:13:10.487Z,51.5
2016-09-22T00:13:51.211Z,51.21
2016-09-22T00:14:31.973Z,51.4
2016-09-22T00:15:12.780Z,51.21
2016-09-22T00:15:53.577Z,51.4
2016-09-22T00:16:34.323Z,51.4
2016-09-22T00:17:15.045Z,51.69
2016-09-22T00:17:55.809Z,51.4
2016-09-22T00:18:36.586Z,51.69
2016-09-22T00:19:17.234Z,51.5
2016-09-22T00:19:58.024Z,51.5
2016-09-22T00:20:38.737Z,51.4
2016-09-22T00:21:19.464Z,51.4
2016-09-22T00:22:00.337Z,51.5
2016-09-22T00:22:41.129Z,51.5
2016-09-22T00:23:21.866Z,51.69
2016-09-22T00:24:02.560Z,51.5
2016-09-22T00:24:43.321Z,51.4
2016-09-22T00:25:24.095Z,51.69
2016-09-22T00:26:04.822Z,51.5
2016-09-22T00:26:45.532Z,51.5
2016-09-22T00:27:26.263Z,51.5
2016-09-22T00:28:07.094Z,51.69
2016-09-22T00:28:47.957Z,51.4
2016-09-22T00:29:28.633Z,51.59
2016-09-22T00:30:09.360Z,51.4
2016-09-22T00:30:50.122Z,51.5
2016-09-22T00:31:30.896Z,51.4
2016-09-22T00:32:11.609Z,51.4
2016-09-22T00:32:52.387Z,51.31
2016-09-22T00:33:33.238Z,51.59
2016-09-22T00:34:13.968Z,51.31
2016-09-22T00:34:54.744Z,51.4
2016-09-22T00:35:35.515Z,51.5
2016-09-22T00:36:16.276Z,51.4
2016-09-22T00:36:57.025Z,51.4
2016-09-22T00:37:37.752Z,51.5
2016-09-22T00:38:18.503Z,51.31
2016-09-22T00:38:59.202Z,51.31
2016-09-22T00:39:39.942Z,51.5
2016-09-22T00:40:20.694Z,51.5
2016-09-22T00:41:01.482Z,51.5
2016-09-22T00:41:42.219Z,51.5
2016-09-22T00:42:22.950Z,51.89
2016-09-22T00:43:03.694Z,51.5
2016-09-22T00:43:44.432Z,52.37
2016-09-22T00:44:25.115Z,51.89
2016-09-22T00:45:05.915Z,51.79
2016-09-22T00:45:46.734Z,52.08
2016-09-22T00:46:27.483Z,52.28
2016-09-22T00:47:08.276Z,51.69
2016-09-22T00:47:49.235Z,52.08
2016-09-22T00:48:29.974Z,51.69
2016-09-22T00:49:10.700Z,52.47
2016-09-22T00:49:51.413Z,52.08
2016-09-22T00:50:32.135Z,51.5
2016-09-22T00:51:12.886Z,51.98
2016-09-22T00:51:53.619Z,51.59
2016-09-22T00:52:34.348Z,51.69
2016-09-22T00:53:15.147Z,51.69
2016-09-22T00:53:55.849Z,51.98
2016-09-22T00:54:36.583Z,52.18
2016-09-22T00:55:17.366Z,51.79
2016-09-22T00:55:58.085Z,51.79
2016-09-22T00:56:38.848Z,52.08
2016-09-22T00:57:19.604Z,51.59
2016-09-22T00:58:00.338Z,52.37
2016-09-22T00:58:41.099Z,52.08
2016-09-22T00:59:21.775Z,52.37
2016-09-22T01:00:02.746Z,52.37
2016-09-22T01:00:43.465Z,51.89
2016-09-22T01:01:24.268Z,52.08
2016-09-22T01:02:04.959Z,52.37
2016-09-22T01:02:45.692Z,52.18
2016-09-22T01:03:26.463Z,52.08
2016-09-22T01:04:07.204Z,52.18
2016-09-22T01:04:47.949Z,52.37
2016-09-22T01:05:28.681Z,52.08
2016-09-22T01:06:09.434Z,52.18
2016-09-22T01:06:50.185Z,52.28
2016-09-22T01:07:30.928Z,52.18
2016-09-22T01:08:11.692Z,52.28
2016-09-22T01:08:52.437Z,52.37
2016-09-22T01:09:33.224Z,52.28
2016-09-22T01:10:13.934Z,52.28
2016-09-22T01:10:54.632Z,52.28
2016-09-22T01:11:35.388Z,52.18
2016-09-22T01:12:16.102Z,52.28
2016-09-22T01:12:56.819Z,52.28
2016-09-22T01:13:37.537Z,51.98
2016-09-22T01:14:18.304Z,52.08
2016-09-22T01:14:59.046Z,52.18
2016-09-22T01:15:39.822Z,52.08
2016-09-22T01:16:20.543Z,52.18
2016-09-22T01:17:01.267Z,51.89
2016-09-22T01:17:41.976Z,52.28
2016-09-22T01:18:22.694Z,52.18
2016-09-22T01:19:03.501Z,51.98
2016-09-22T01:19:44.207Z,51.98
2016-09-22T01:20:24.924Z,52.28
2016-09-22T01:21:05.705Z,52.37
2016-09-22T01:21:46.436Z,52.18
2016-09-22T01:22:27.367Z,52.28
2016-09-22T01:23:08.310Z,52.08
2016-09-22T01:23:49.074Z,51.98
2016-09-22T01:24:29.764Z,52.18
2016-09-22T01:25:10.765Z,52.08
2016-09-22T01:25:51.585Z,52.18
2016-09-22T01:26:32.347Z,52.08
2016-09-22T01:27:13.107Z,52.28
2016-09-22T01:27:53.863Z,52.37
2016-09-22T01:28:34.701Z,52.28
2016-09-22T01:29:15.614Z,52.28
2016-09-22T01:29:56.375Z,52.08
2016-09-22T01:30:37.087Z,52.37
2016-09-22T01:31:17.872Z,52.28
2016-09-22T01:31:58.553Z,52.37
2016-09-22T01:32:39.285Z,52.28
2016-09-22T01:33:19.969Z,52.37
2016-09-22T01:34:01.010Z,52.37
2016-09-22T01:34:41.706Z,52.18
2016-09-22T01:35:22.386Z,52.18
2016-09-22T01:36:03.126Z,52.18
2016-09-22T01:36:43.806Z,52.28
2016-09-22T01:37:24.559Z,52.18
2016-09-22T01:38:05.257Z,52.28
2016-09-22T01:38:46.045Z,52.37
2016-09-22T01:39:26.742Z,52.28
2016-09-22T01:40:07.514Z,52.37
2016-09-22T01:40:48.255Z,52.37
2016-09-22T01:41:28.994Z,52.28
2016-09-22T01:42:09.871Z,52.18
2016-09-22T01:42:50.653Z,52.28
2016-09-22T01:43:31.369Z,52.47
2016-09-22T01:44:12.125Z,52.47
2016-09-22T01:44:52.898Z,52.18
2016-09-22T01:45:33.581Z,52.18
2016-09-22T01:46:14.330Z,52.37
2016-09-22T01:46:55.020Z,52.18
2016-09-22T01:47:35.782Z,52.37
2016-09-22T01:48:16.499Z,52.28
2016-09-22T01:48:57.262Z,52.18
2016-09-22T01:49:38.009Z,52.37
2016-09-22T01:50:18.737Z,52.37
2016-09-22T01:50:59.510Z,52.18
2016-09-22T01:51:40.247Z,52.37
2016-09-22T01:52:20.973Z,52.28
2016-09-22T01:53:01.716Z,52.18
2016-09-22T01:53:42.605Z,52.37
2016-09-22T01:54:23.300Z,52.28
2016-09-22T01:55:04.004Z,52.18
2016-09-22T01:55:44.702Z,52.18
2016-09-22T01:56:25.410Z,52.37
2016-09-22T01:57:06.163Z,52.18
2016-09-22T01:57:46.916Z,52.28
2016-09-22T01:58:27.663Z,52.37
2016-09-22T01:59:08.387Z,52.37
2016-09-22T01:59:49.135Z,52.28
2016-09-22T02:00:29.879Z,52.18
2016-09-22T02:01:10.635Z,52.37
2016-09-22T02:01:51.411Z,52.28
2016-09-22T02:02:32.091Z,52.18
2016-09-22T02:03:12.853Z,52.37
2016-09-22T02:03:53.748Z,52.18
2016-09-22T02:04:34.536Z,52.28
2016-09-22T02:05:15.284Z,52.28
2016-09-22T02:05:56.021Z,52.28
2016-09-22T02:06:36.785Z,52.18
2016-09-22T02:07:17.503Z,52.28
2016-09-22T02:07:58.221Z,52.37
2016-09-22T02:08:38.950Z,52.08
2016-09-22T02:09:19.693Z,52.18
2016-09-22T02:10:00.442Z,52.37
2016-09-22T02:10:41.172Z,52.18
2016-09-22T02:11:21.963Z,52.28
2016-09-22T02:12:02.708Z,52.18
2016-09-22T02:12:43.491Z,52.37
2016-09-22T02:13:24.340Z,52.37
2016-09-22T02:14:05.264Z,52.28
2016-09-22T02:14:46.053Z,52.28
2016-09-22T02:15:26.751Z,52.28
2016-09-22T02:16:07.497Z,52.28
2016-09-22T02:16:48.281Z,52.37
2016-09-22T02:17:28.993Z,52.28
2016-09-22T02:18:09.744Z,51.98
2016-09-22T02:18:50.509Z,51.98
2016-09-22T02:19:31.146Z,52.08
2016-09-22T02:20:11.875Z,52.28
2016-09-22T02:20:52.605Z,52.08
2016-09-22T02:21:33.311Z,52.28
2016-09-22T02:22:14.023Z,52.28
2016-09-22T02:22:54.779Z,52.37
2016-09-22T02:23:35.510Z,52.37
2016-09-22T02:24:16.299Z,51.98
2016-09-22T02:24:57.038Z,52.37
2016-09-22T02:25:37.883Z,52.37
2016-09-22T02:26:18.585Z,52.37
2016-09-22T02:26:59.366Z,52.37
2016-09-22T02:27:40.139Z,52.28
2016-09-22T02:28:20.841Z,52.37
2016-09-22T02:29:01.568Z,52.37
2016-09-22T02:29:42.325Z,52.08
2016-09-22T02:30:23.027Z,52.28
2016-09-22T02:31:03.738Z,52.18
2016-09-22T02:31:44.477Z,52.28
2016-09-22T02:32:25.197Z,52.37
2016-09-22T02:33:05.927Z,52.08
2016-09-22T02:33:46.695Z,52.37
2016-09-22T02:34:27.437Z,51.98
2016-09-22T02:35:08.161Z,52.37
2016-09-22T02:35:48.938Z,52.28
2016-09-22T02:36:29.668Z,52.47
2016-09-22T02:37:10.410Z,52.18
2016-09-22T02:37:51.175Z,52.28
2016-09-22T02:38:31.883Z,52.18
2016-09-22T02:39:12.606Z,52.28
2016-09-22T02:39:53.317Z,52.37
2016-09-22T02:40:34.029Z,52.08
2016-09-22T02:41:14.733Z,52.18
2016-09-22T02:41:55.498Z,52.08
2016-09-22T02:42:36.240Z,52.08
2016-09-22T02:43:16.971Z,52.08
2016-09-22T02:43:57.698Z,52.37
2016-09-22T02:44:38.414Z,52.08
2016-09-22T02:45:19.099Z,51.89
2016-09-22T02:45:59.906Z,52.47
2016-09-22T02:46:40.609Z,52.47
2016-09-22T02:47:21.352Z,52.28
2016-09-22T02:48:02.037Z,51.89
2016-09-22T02:48:42.792Z,52.28
2016-09-22T02:49:23.566Z,52.08
2016-09-22T02:50:04.282Z,52.47
2016-09-22T02:50:45.055Z,52.37
2016-09-22T02:51:25.793Z,52.37
2016-09-22T02:52:06.521Z,52.28
2016-09-22T02:52:47.233Z,52.56
2016-09-22T02:53:27.988Z,52.37
2016-09-22T02:54:08.674Z,52.37
2016-09-22T02:54:49.352Z,52.66
2016-09-22T02:55:30.095Z,52.47
2016-09-22T02:56:10.775Z,52.66
2016-09-22T02:56:51.538Z,52.37
2016-09-22T02:57:32.271Z,52.37
2016-09-22T02:58:13.025Z,52.47
2016-09-22T02:58:53.793Z,52.66
2016-09-22T02:59:34.537Z,52.37
2016-09-22T03:00:15.272Z,52.18
2016-09-22T03:00:56.090Z,52.28
2016-09-22T03:01:36.859Z,52.47
2016-09-22T03:02:17.609Z,52.28
2016-09-22T03:02:58.414Z,52.08
2016-09-22T03:03:39.130Z,52.37
2016-09-22T03:04:19.837Z,52.66
2016-09-22T03:05:00.569Z,52.08
2016-09-22T03:05:41.306Z,52.08
2016-09-22T03:06:22.064Z,52.37
2016-09-22T03:07:02.792Z,52.18
2016-09-22T03:07:43.486Z,52.66
2016-09-22T03:08:24.270Z,52.18
2016-09-22T03:09:05.017Z,52.28
2016-09-22T03:09:45.794Z,52.08
2016-09-22T03:10:26.504Z,52.47
2016-09-22T03:11:07.199Z,52.08
2016-09-22T03:11:47.960Z,52.28
2016-09-22T03:12:28.661Z,52.18
2016-09-22T03:13:09.403Z,52.18
2016-09-22T03:13:50.130Z,52.28
2016-09-22T03:14:30.838Z,52.37
2016-09-22T03:15:11.599Z,52.66
2016-09-22T03:15:52.387Z,52.18
2016-09-22T03:16:33.133Z,52.47
2016-09-22T03:17:13.926Z,52.47
2016-09-22T03:17:54.649Z,52.56
2016-09-22T03:18:35.428Z,52.47
2016-09-22T03:19:16.215Z,52.37
2016-09-22T03:19:56.973Z,52.28
2016-09-22T03:20:37.655Z,52.37
2016-09-22T03:21:18.450Z,52.08
2016-09-22T03:21:59.223Z,52.56
2016-09-22T03:22:39.874Z,52.28
2016-09-22T03:23:20.615Z,52.37
2016-09-22T03:24:01.354Z,52.47
2016-09-22T03:24:42.090Z,52.66
2016-09-22T03:25:22.819Z,52.66
2016-09-22T03:26:03.550Z,52.37
2016-09-22T03:26:44.249Z,52.66
2016-09-22T03:27:25.048Z,52.37
2016-09-22T03:28:05.830Z,52.66
2016-09-22T03:28:46.532Z,52.37
2016-09-22T03:29:27.267Z,52.28
2016-09-22T03:30:07.993Z,52.37
2016-09-22T03:30:48.788Z,52.66
2016-09-22T03:31:29.460Z,52.28
2016-09-22T03:32:10.209Z,52.37
2016-09-22T03:32:50.887Z,52.28
2016-09-22T03:33:31.675Z,52.37
2016-09-22T03:34:12.387Z,52.37
2016-09-22T03:34:53.165Z,52.37
2016-09-22T03:35:33.945Z,52.37
2016-09-22T03:36:14.739Z,52.66
2016-09-22T03:36:55.481Z,52.28
2016-09-22T03:37:36.188Z,52.47
2016-09-22T03:38:16.988Z,52.66
2016-09-22T03:38:57.708Z,52.28
2016-09-22T03:39:38.479Z,52.66
2016-09-22T03:40:19.238Z,52.28
2016-09-22T03:40:59.976Z,52.37
2016-09-22T03:41:40.723Z,52.18
2016-09-22T03:42:21.436Z,52.66
2016-09-22T03:43:02.220Z,52.37
2016-09-22T03:43:42.989Z,52.37
2016-09-22T03:44:23.729Z,52.08
2016-09-22T03:45:04.451Z,52.37
2016-09-22T03:45:45.207Z,52.47
2016-09-22T03:46:25.875Z,52.37
2016-09-22T03:47:06.583Z,52.18
2016-09-22T03:47:47.327Z,52.66
2016-09-22T03:48:28.095Z,52.28
2016-09-22T03:49:08.846Z,52.28
2016-09-22T03:49:49.640Z,52.37
2016-09-22T03:50:30.366Z,52.47
2016-09-22T03:51:11.092Z,52.28
2016-09-22T03:51:51.835Z,52.37
2016-09-22T03:52:32.606Z,52.08
2016-09-22T03:53:13.344Z,52.37
2016-09-22T03:53:54.102Z,52.37
2016-09-22T03:54:34.890Z,52.18
2016-09-22T03:55:15.571Z,52.66
2016-09-22T03:55:56.487Z,52.47
2016-09-22T03:56:37.262Z,52.37
2016-09-22T03:57:17.972Z,52.37
2016-09-22T03:57:58.687Z,52.37
2016-09-22T03:58:39.402Z,52.56
2016-09-22T03:59:20.156Z,52.08
2016-09-22T04:00:00.985Z,52.56
2016-09-22T04:00:41.971Z,52.08
2016-09-22T04:01:22.667Z,52.56
2016-09-22T04:02:03.412Z,52.28
2016-09-22T04:02:44.186Z,52.56
2016-09-22T04:03:24.901Z,52.66
2016-09-22T04:04:05.633Z,52.18
2016-09-22T04:04:46.374Z,52.56
2016-09-22T04:05:27.089Z,52.08
2016-09-22T04:06:07.823Z,52.28
2016-09-22T04:06:48.599Z,52.56
2016-09-22T04:07:29.365Z,52.56
2016-09-22T04:08:10.047Z,52.18
2016-09-22T04:08:50.765Z,52.37
2016-09-22T04:09:31.523Z,52.18
2016-09-22T04:10:12.193Z,52.76
2016-09-22T04:10:53.304Z,52.56
2016-09-22T04:11:34.037Z,52.37
2016-09-22T04:12:14.818Z,52.37
2016-09-22T04:12:55.491Z,52.28
2016-09-22T04:13:36.221Z,52.56
2016-09-22T04:14:16.946Z,52.56
2016-09-22T04:14:57.736Z,52.37
2016-09-22T04:15:38.455Z,52.56
2016-09-22T04:16:19.176Z,52.47
2016-09-22T04:16:59.917Z,52.47
2016-09-22T04:17:40.614Z,52.18
2016-09-22T04:18:21.352Z,52.37
2016-09-22T04:19:02.064Z,52.47
2016-09-22T04:19:42.848Z,52.66
2016-09-22T04:20:23.576Z,52.56
2016-09-22T04:21:04.319Z,52.95
2016-09-22T04:21:45.081Z,52.56
2016-09-22T04:22:25.933Z,52.56
2016-09-22T04:23:06.777Z,52.56
2016-09-22T04:23:47.498Z,52.56
2016-09-22T04:24:28.206Z,52.56
2016-09-22T04:25:08.905Z,52.47
2016-09-22T04:25:49.725Z,52.66
2016-09-22T04:26:30.407Z,52.37
2016-09-22T04:27:11.220Z,52.47
2016-09-22T04:27:51.957Z,52.76
2016-09-22T04:28:32.718Z,52.66
2016-09-22T04:29:13.472Z,52.47
2016-09-22T04:29:54.221Z,52.66
2016-09-22T04:30:34.943Z,52.66
2016-09-22T04:31:15.662Z,52.37
2016-09-22T04:31:56.362Z,52.56
2016-09-22T04:32:37.126Z,52.66
2016-09-22T04:33:17.805Z,52.76
2016-09-22T04:33:58.531Z,52.56
2016-09-22T04:34:39.277Z,52.56
2016-09-22T04:35:20.079Z,52.66
2016-09-22T04:36:00.902Z,52.66
2016-09-22T04:36:41.623Z,52.56
2016-09-22T04:37:22.397Z,52.47
2016-09-22T04:38:03.185Z,52.56
2016-09-22T04:38:43.927Z,52.56
2016-09-22T04:39:24.651Z,52.56
2016-09-22T04:40:05.402Z,52.86
2016-09-22T04:40:46.091Z,52.66
2016-09-22T04:41:26.882Z,52.56
2016-09-22T04:42:07.705Z,52.56
2016-09-22T04:42:48.369Z,52.56
2016-09-22T04:43:29.061Z,52.56
2016-09-22T04:44:09.807Z,52.66
2016-09-22T04:44:50.501Z,52.56
2016-09-22T04:45:31.216Z,52.56
2016-09-22T04:46:12.186Z,52.86
2016-09-22T04:46:52.934Z,52.86
2016-09-22T04:47:33.632Z,52.76
2016-09-22T04:48:14.418Z,52.66
2016-09-22T04:48:55.135Z,52.66
2016-09-22T04:49:35.877Z,52.76
2016-09-22T04:50:16.768Z,52.86
2016-09-22T04:50:57.642Z,52.66
2016-09-22T04:51:38.420Z,52.66
2016-09-22T04:52:19.125Z,52.66
2016-09-22T04:52:59.825Z,52.66
2016-09-22T04:53:40.578Z,52.88
2016-09-22T04:54:21.487Z,52.86
2016-09-22T04:55:02.196Z,52.95
2016-09-22T04:55:42.942Z,52.76
2016-09-22T04:56:23.635Z,52.66
2016-09-22T04:57:04.367Z,52.76
2016-09-22T04:57:45.130Z,52.86
2016-09-22T04:58:25.907Z,52.66
2016-09-22T04:59:06.626Z,52.76
2016-09-22T04:59:47.402Z,52.56
2016-09-22T05:00:28.063Z,52.56
2016-09-22T05:01:08.843Z,52.66
2016-09-22T05:01:49.542Z,52.66
2016-09-22T05:02:30.285Z,52.86
2016-09-22T05:03:11.013Z,52.86
2016-09-22T05:03:51.762Z,52.56
2016-09-22T05:04:32.479Z,52.56
2016-09-22T05:05:13.225Z,52.76
2016-09-22T05:05:54.007Z,52.66
2016-09-22T05:06:34.739Z,52.66
2016-09-22T05:07:15.445Z,52.76
2016-09-22T05:07:56.236Z,52.47
2016-09-22T05:08:36.994Z,52.66
2016-09-22T05:09:17.767Z,52.56
2016-09-22T05:09:58.504Z,52.56
2016-09-22T05:10:39.145Z,52.59
2016-09-22T05:11:19.835Z,52.66
2016-09-22T05:12:00.575Z,52.66
2016-09-22T05:12:41.287Z,52.69
2016-09-22T05:13:21.996Z,52.56
2016-09-22T05:14:02.706Z,52.69
2016-09-22T05:14:43.420Z,52.66
2016-09-22T05:15:24.189Z,52.69
2016-09-22T05:16:04.952Z,52.76
2016-09-22T05:16:45.698Z,52.88
2016-09-22T05:17:26.437Z,52.69
2016-09-22T05:18:07.213Z,52.86
2016-09-22T05:18:47.925Z,52.56
2016-09-22T05:19:28.604Z,52.69
2016-09-22T05:20:09.384Z,52.56
2016-09-22T05:20:50.124Z,52.59
2016-09-22T05:21:30.806Z,52.76
2016-09-22T05:22:11.497Z,52.76
2016-09-22T05:22:52.289Z,52.66
2016-09-22T05:23:33.012Z,52.88
2016-09-22T05:24:13.759Z,52.59
2016-09-22T05:24:54.536Z,52.47
2016-09-22T05:25:35.283Z,52.76
2016-09-22T05:26:16.007Z,52.56
2016-09-22T05:26:56.702Z,52.66
2016-09-22T05:27:37.389Z,52.66
2016-09-22T05:28:18.095Z,52.69
2016-09-22T05:28:58.841Z,52.88
2016-09-22T05:29:39.558Z,52.69
2016-09-22T05:30:20.262Z,52.78
2016-09-22T05:31:01.024Z,52.5
2016-09-22T05:31:41.746Z,52.69
2016-09-22T05:32:22.469Z,52.69
2016-09-22T05:33:03.194Z,52.47
2016-09-22T05:33:43.979Z,52.66
2016-09-22T05:34:24.736Z,52.47
2016-09-22T05:35:05.466Z,52.76
2016-09-22T05:35:46.236Z,52.56
2016-09-22T05:36:27.005Z,52.69
2016-09-22T05:37:07.793Z,52.76
2016-09-22T05:37:48.502Z,52.59
2016-09-22T05:38:29.243Z,52.76
2016-09-22T05:39:09.993Z,52.88
2016-09-22T05:39:50.747Z,52.69
2016-09-22T05:40:31.507Z,52.76
2016-09-22T05:41:12.285Z,52.47
2016-09-22T05:41:53.040Z,52.5
2016-09-22T05:42:33.748Z,52.78
2016-09-22T05:43:14.508Z,52.88
2016-09-22T05:43:55.234Z,52.88
2016-09-22T05:44:36.024Z,52.69
2016-09-22T05:45:16.769Z,52.47
2016-09-22T05:45:57.501Z,52.95
2016-09-22T05:46:38.293Z,52.88
2016-09-22T05:47:19.044Z,52.88
2016-09-22T05:47:59.742Z,52.47
2016-09-22T05:48:40.468Z,52.47
2016-09-22T05:49:21.195Z,52.69
2016-09-22T05:50:01.936Z,52.86
2016-09-22T05:50:42.642Z,52.5
2016-09-22T05:51:23.369Z,52.5
2016-09-22T05:52:04.099Z,52.88
2016-09-22T05:52:44.835Z,52.69
2016-09-22T05:53:25.590Z,52.5
2016-09-22T05:54:06.349Z,52.78
2016-09-22T05:54:46.997Z,53.17
2016-09-22T05:55:27.770Z,52.88
2016-09-22T05:56:08.514Z,52.88
2016-09-22T05:56:49.261Z,52.88
2016-09-22T05:57:29.991Z,52.5
2016-09-22T05:58:10.725Z,52.98
2016-09-22T05:58:51.597Z,52.59
2016-09-22T05:59:32.390Z,52.88
2016-09-22T06:00:13.121Z,52.69
2016-09-22T06:00:53.931Z,52.69
2016-09-22T06:01:34.695Z,52.59
2016-09-22T06:02:15.430Z,52.88
2016-09-22T06:02:56.155Z,52.59
2016-09-22T06:03:36.900Z,52.88
2016-09-22T06:04:17.641Z,52.69
2016-09-22T06:04:58.384Z,52.69
2016-09-22T06:05:39.159Z,52.69
2016-09-22T06:06:19.909Z,52.88
2016-09-22T06:07:00.612Z,52.88
2016-09-22T06:07:41.383Z,52.88
2016-09-22T06:08:22.085Z,52.59
2016-09-22T06:09:02.867Z,52.69
2016-09-22T06:09:43.646Z,52.78
2016-09-22T06:10:24.390Z,52.69
2016-09-22T06:11:05.210Z,52.5
2016-09-22T06:11:45.964Z,52.69
2016-09-22T06:12:26.687Z,52.69
2016-09-22T06:13:07.434Z,52.59
2016-09-22T06:13:48.188Z,52.69
2016-09-22T06:14:28.916Z,52.69
2016-09-22T06:15:09.673Z,52.69
2016-09-22T06:15:50.426Z,52.59
2016-09-22T06:16:31.135Z,52.2
2016-09-22T06:17:11.845Z,52.59
2016-09-22T06:17:52.565Z,52.69
2016-09-22T06:18:33.293Z,52.4
2016-09-22T06:19:14.089Z,52.59
2016-09-22T06:19:54.859Z,52.5
2016-09-22T06:20:35.605Z,52.5
2016-09-22T06:21:16.324Z,52.4
2016-09-22T06:21:57.158Z,52.4
2016-09-22T06:22:37.856Z,52.59
2016-09-22T06:23:18.614Z,52.2
2016-09-22T06:23:59.356Z,52.69
2016-09-22T06:24:40.126Z,52.2
2016-09-22T06:25:20.916Z,52.69
2016-09-22T06:26:01.648Z,52.11
2016-09-22T06:26:42.374Z,52.11
2016-09-22T06:27:23.131Z,52.11
2016-09-22T06:28:03.959Z,52.3
2016-09-22T06:28:44.737Z,52.2
2016-09-22T06:29:25.464Z,52.4
2016-09-22T06:30:06.271Z,52.2
2016-09-22T06:30:47.042Z,52.2
2016-09-22T06:31:27.786Z,52.2
2016-09-22T06:32:08.558Z,52.3
2016-09-22T06:32:49.336Z,52.11
2016-09-22T06:33:30.092Z,52.2
2016-09-22T06:34:10.832Z,52.2
2016-09-22T06:34:51.594Z,52.01
2016-09-22T06:35:32.349Z,52.4
2016-09-22T06:36:13.163Z,52.2
2016-09-22T06:36:53.970Z,52.4
2016-09-22T06:37:35.597Z,52.11
2016-09-22T06:38:16.352Z,51.53
2016-09-22T06:38:57.131Z,51.53
2016-09-22T06:39:37.901Z,51.53
2016-09-22T06:40:18.608Z,51.53
2016-09-22T06:40:59.373Z,51.62
2016-09-22T06:41:40.215Z,51.53
2016-09-22T06:42:21.315Z,51.43
2016-09-22T06:43:02.107Z,51.33
2016-09-22T06:43:42.874Z,51.43
2016-09-22T06:44:23.587Z,51.33
2016-09-22T06:45:04.302Z,51.43
2016-09-22T06:45:45.022Z,50.94
2016-09-22T06:46:25.785Z,51.62
2016-09-22T06:47:06.507Z,51.04
2016-09-22T06:47:47.294Z,51.14
2016-09-22T06:48:28.055Z,50.94
2016-09-22T06:49:08.878Z,50.94
2016-09-22T06:49:49.520Z,50.94
2016-09-22T06:50:30.240Z,50.94
2016-09-22T06:51:11.030Z,51.14
2016-09-22T06:51:51.753Z,50.56
2016-09-22T06:52:32.483Z,50.07
2016-09-22T06:53:13.232Z,50.26
2016-09-22T06:53:54.055Z,49.77
2016-09-22T06:54:35.005Z,49.58
2016-09-22T06:55:15.907Z,47.93
2016-09-22T06:55:56.642Z,47.93
2016-09-22T06:56:37.413Z,47.35
2016-09-22T06:57:18.169Z,46.77
2016-09-22T06:57:58.951Z,46.67
2016-09-22T06:58:39.746Z,46.77
2016-09-22T06:59:20.456Z,46.38
2016-09-22T07:00:01.250Z,46.67
2016-09-22T07:00:42.033Z,46.28
2016-09-22T07:01:23.080Z,45.7
2016-09-22T07:02:03.935Z,45.41
2016-09-22T07:02:44.706Z,45.21
2016-09-22T07:03:25.467Z,45.31
2016-09-22T07:04:06.186Z,45.51
2016-09-22T07:04:46.971Z,45.41
2016-09-22T07:05:27.778Z,45.7
2016-09-22T07:06:08.558Z,44.73
2016-09-22T07:06:49.298Z,44.73
2016-09-22T07:07:30.095Z,44.64
2016-09-22T07:08:10.901Z,44.64
2016-09-22T07:08:51.711Z,44.83
2016-09-22T07:09:32.715Z,44.54
2016-09-22T07:10:13.455Z,44.34
2016-09-22T07:10:54.363Z,44.05
2016-09-22T07:11:35.123Z,43.86
2016-09-22T07:12:16.804Z,43.95
2016-09-22T07:12:57.529Z,43.76
2016-09-22T07:13:38.453Z,43.76
2016-09-22T07:14:19.311Z,43.66
2016-09-22T07:15:00.135Z,43.76
2016-09-22T07:15:40.978Z,43.57
2016-09-22T07:16:21.779Z,43.47
2016-09-22T07:17:02.560Z,43.18
2016-09-22T07:17:43.374Z,43.18
2016-09-22T07:18:26.151Z,43.27
2016-09-22T07:19:08.133Z,43.18
2016-09-22T07:19:49.309Z,42.99
2016-09-22T07:20:30.640Z,42.89
2016-09-22T07:21:12.500Z,43.08
2016-09-22T07:21:54.284Z,42.79
2016-09-22T07:22:35.400Z,42.99
2016-09-22T07:23:17.528Z,42.99
2016-09-22T07:24:00.403Z,43.08
2016-09-22T07:24:41.480Z,42.89
2016-09-22T07:25:22.652Z,42.89
2016-09-22T07:26:03.385Z,42.89
2016-09-22T07:26:44.956Z,42.89
2016-09-22T07:27:36.943Z,43.08
2016-09-22T07:29:37.577Z,43.08
2016-09-22T07:30:21.145Z,42.89
2016-09-22T07:31:01.984Z,42.99
2016-09-22T07:31:43.943Z,43.08
2016-09-22T07:32:25.364Z,42.99
2016-09-22T07:33:07.046Z,42.89
2016-09-22T07:33:49.058Z,42.89
2016-09-22T07:34:30.592Z,42.99
2016-09-22T07:35:11.388Z,42.99
2016-09-22T07:35:52.954Z,42.99
2016-09-22T07:36:34.673Z,42.5
2016-09-22T07:37:15.523Z,42.3
2016-09-22T07:39:09.729Z,42.4
2016-09-22T07:39:52.186Z,42.69
2016-09-22T07:40:33.037Z,42.6
2016-09-22T07:41:14.178Z,42.4
2016-09-22T07:41:55.050Z,42.99
2016-09-22T07:42:35.771Z,43.27
2016-09-22T07:43:16.507Z,43.59
2016-09-22T07:43:57.283Z,43.66
2016-09-22T07:44:38.083Z,43.86
2016-09-22T07:45:18.813Z,44.17
2016-09-22T07:45:59.616Z,44.07
2016-09-22T07:46:40.393Z,44.07
2016-09-22T07:47:21.075Z,44.17
2016-09-22T07:48:01.850Z,44.07
2016-09-22T07:48:42.558Z,43.98
2016-09-22T07:49:23.276Z,44.17
2016-09-22T07:50:04.035Z,43.98
2016-09-22T07:50:44.756Z,43.98
2016-09-22T07:51:25.570Z,44.27
2016-09-22T07:52:06.341Z,44.27
2016-09-22T07:52:47.101Z,44.07
2016-09-22T07:53:27.917Z,43.98
2016-09-22T07:54:08.627Z,44.17
2016-09-22T07:54:49.468Z,43.98
2016-09-22T07:55:30.154Z,44.27
2016-09-22T07:56:10.944Z,43.98
2016-09-22T07:56:51.686Z,43.88
2016-09-22T07:57:32.431Z,43.78
2016-09-22T07:58:13.898Z,43.88
2016-09-22T07:58:53.918Z,43.98
2016-09-22T07:59:34.671Z,43.59
2016-09-22T08:00:15.364Z,43.4
2016-09-22T08:00:56.176Z,43.1
2016-09-22T08:01:36.913Z,43.1
2016-09-22T08:02:17.707Z,43.4
2016-09-22T08:02:58.427Z,43.68
2016-09-22T08:03:39.228Z,43.49
2016-09-22T08:04:20.041Z,43.78
2016-09-22T08:05:00.764Z,43.68
2016-09-22T08:05:41.572Z,43.4
2016-09-22T08:06:22.312Z,43.1
2016-09-22T08:07:03.072Z,42.71
2016-09-22T08:07:43.836Z,43.01
2016-09-22T08:08:24.637Z,43.01
2016-09-22T08:09:05.353Z,42.33
2016-09-22T08:09:46.039Z,42.52
2016-09-22T08:10:26.779Z,42.71
2016-09-22T08:11:07.548Z,42.71
2016-09-22T08:11:48.366Z,42.61
2016-09-22T08:12:29.137Z,42.52
2016-09-22T08:13:09.857Z,42.03
2016-09-22T08:13:50.626Z,43.68
2016-09-22T08:14:31.356Z,43.2
2016-09-22T08:17:47.204Z,42.91
2016-09-22T08:18:27.979Z,43.49
2016-09-22T08:19:08.770Z,43.2
2016-09-22T08:19:49.557Z,43.01
2016-09-22T08:20:30.283Z,42.43
2016-09-22T08:21:11.137Z,42.43
2016-09-22T08:21:52.903Z,42.23
2016-09-22T08:22:34.676Z,42.43
2016-09-22T08:23:15.454Z,42.43
2016-09-22T08:23:56.241Z,42.71
2016-09-22T08:24:36.978Z,43.01
2016-09-22T08:25:17.725Z,42.52
2016-09-22T08:25:58.528Z,42.03
2016-09-22T08:26:39.337Z,42.03
2016-09-22T08:27:20.125Z,41.84
2016-09-22T08:28:00.796Z,41.94
2016-09-22T08:28:41.561Z,41.94
2016-09-22T08:29:22.332Z,41.55
2016-09-22T08:30:03.100Z,42.13
2016-09-22T08:30:43.863Z,43.1
2016-09-22T08:31:24.590Z,44.17
2016-09-22T08:32:05.379Z,44.73
2016-09-22T08:32:46.130Z,45.12
2016-09-22T08:33:27.301Z,45.2
2016-09-22T08:34:08.062Z,45.87
2016-09-22T08:34:48.782Z,45.39
2016-09-22T08:35:29.529Z,45.56
2016-09-22T08:36:10.323Z,45.27
2016-09-22T08:36:51.051Z,45.65
2016-09-22T08:37:31.811Z,45.25
2016-09-22T08:38:12.628Z,45.15
2016-09-22T08:38:53.398Z,45.25
2016-09-22T08:39:34.102Z,45.15
2016-09-22T08:40:14.864Z,45.34
2016-09-22T08:40:56.637Z,44.67
2016-09-22T08:41:37.463Z,44.67
2016-09-22T08:42:18.180Z,44.96
2016-09-22T08:42:58.986Z,45.32
2016-09-22T08:43:40.746Z,45.32
2016-09-22T08:44:21.488Z,45.32
2016-09-22T08:45:02.196Z,45.32
2016-09-22T08:45:42.960Z,45.22
2016-09-22T08:46:24.646Z,44.64
2016-09-22T08:47:05.367Z,44.54
2016-09-22T08:47:46.152Z,44.54
2016-09-22T08:48:26.923Z,44.43
2016-09-22T08:49:07.683Z,44.91
2016-09-22T08:49:48.450Z,44.53
2016-09-22T08:50:29.247Z,44.54
2016-09-22T08:51:10.004Z,44.45
2016-09-22T08:51:50.983Z,44.16
2016-09-22T08:52:33.456Z,44.62